»·PEaware :: N939MA KSBA-KBUR

N939MA :: KSBA-KBUR

FLIGHT INFORMATION

Flight Status: Arrived
Operator: Privately registered:
United States
More flights under this callsign
Pilot: Lary E. (11379)
Aircraft: CESSNA 172 SKYHAWK
(C172)
More flights by this aircraft type
Origin: KSBA Santa Barbara Mun
United States
Destination: KBUR Bob Hope-Burbank
United States
More flights between these airports :: More routes between these airports
Route: KSBA FIM KBUR
File this flight plan on PilotEdge
Remarks:
Altitude:
(Current/Filed)
7,500ft
Speed:
(Current/Filed)
110kts
Departed: 06-Oct-18 01:40 PM
Arrived: 06-Oct-18 02:30 PM
Distance/Time
Traveled:
74nm/0:50
Distance/Time
To Go:
Arrived

Flight Plot

Page will automatically refresh every two minutes.


Map Options




Map Legend


Flown Route
Filed Route
Departure Airport
Arrival Airport
Navaid (VOR, NDB)
Fix

Horizontal Profiles

Position Reports

Time Latitude Longitude Heading Altitude Ground
Speed
06-Oct-18 13:32 34.425815 -119.836718 189 10ft 0kts
06-Oct-18 13:33 34.425815 -119.836718 189 10ft 0kts
06-Oct-18 13:34 34.425815 -119.836718 189 10ft 0kts
06-Oct-18 13:35 34.425815 -119.836718 189 10ft 0kts
06-Oct-18 13:36 34.425815 -119.836718 189 10ft 0kts
06-Oct-18 13:37 34.425815 -119.836718 189 10ft 0kts
06-Oct-18 13:38 34.425606 -119.837173 248 10ft 5kts
06-Oct-18 13:39 34.428247 -119.838842 347 13ft 18kts
06-Oct-18 13:40 34.430614 -119.839829 300 14ft 0kts
06-Oct-18 13:41 34.430614 -119.839829 300 14ft 0kts
06-Oct-18 13:42 34.423401 -119.838248 165 163ft 80kts
06-Oct-18 13:43 34.405449 -119.830768 155 1040ft 81kts
06-Oct-18 13:44 34.380444 -119.817061 155 1418ft 111kts
06-Oct-18 13:45 34.357438 -119.801920 113 2005ft 81kts
06-Oct-18 13:46 34.365571 -119.779113 64 2954ft 76kts
06-Oct-18 13:47 34.368297 -119.753952 90 3826ft 80kts
06-Oct-18 13:48 34.372834 -119.727522 84 4709ft 80kts
06-Oct-18 13:49 34.371824 -119.700361 100 5543ft 86kts
06-Oct-18 13:50 34.372333 -119.672288 75 6409ft 79kts
06-Oct-18 13:51 34.379312 -119.646283 72 7166ft 82kts
06-Oct-18 13:52 34.382263 -119.608322 86 7520ft 116kts
06-Oct-18 13:53 34.385022 -119.574970 82 7568ft 119kts
06-Oct-18 13:54 34.388543 -119.537486 83 7561ft 110kts
06-Oct-18 13:55 34.391763 -119.500426 84 7538ft 110kts
06-Oct-18 13:56 34.393855 -119.463239 85 7526ft 110kts
06-Oct-18 13:57 34.396135 -119.426195 86 7513ft 110kts
06-Oct-18 13:58 34.397974 -119.389087 87 7499ft 110kts
06-Oct-18 13:59 34.396675 -119.351991 91 7491ft 110kts
06-Oct-18 14:00 34.395159 -119.317284 93 7477ft 110kts
06-Oct-18 14:01 34.392707 -119.280068 98 7459ft 110kts
06-Oct-18 14:02 34.387631 -119.243397 98 7442ft 110kts
06-Oct-18 14:03 34.384663 -119.206474 94 7438ft 110kts
06-Oct-18 14:04 34.381032 -119.170174 96 7522ft 104kts
06-Oct-18 14:05 34.375722 -119.134669 101 7549ft 107kts
06-Oct-18 14:06 34.370728 -119.099101 99 7605ft 107kts
06-Oct-18 14:07 34.367243 -119.063247 95 7664ft 110kts
06-Oct-18 14:08 34.364263 -119.025144 92 7688ft 116kts
06-Oct-18 14:09 34.363254 -118.985581 90 7662ft 117kts
06-Oct-18 14:10 34.363532 -118.946000 90 7632ft 118kts
06-Oct-18 14:11 34.362248 -118.907051 88 7691ft 115kts
06-Oct-18 14:12 34.362520 -118.867131 101 7567ft 121kts
06-Oct-18 14:13 34.352500 -118.828515 111 7467ft 121kts
06-Oct-18 14:14 34.341062 -118.790018 109 7304ft 123kts
06-Oct-18 14:15 34.328713 -118.755440 114 6981ft 103kts
06-Oct-18 14:16 34.317576 -118.723611 113 6655ft 103kts
06-Oct-18 14:17 34.305754 -118.692378 111 6285ft 101kts
06-Oct-18 14:18 34.296293 -118.660735 109 5784ft 100kts
06-Oct-18 14:19 34.285145 -118.630164 116 5158ft 100kts
06-Oct-18 14:20 34.272515 -118.602547 115 4569ft 100kts
06-Oct-18 14:21 34.260701 -118.575586 119 4012ft 99kts
06-Oct-18 14:22 34.250570 -118.547233 112 3481ft 92kts
06-Oct-18 14:23 34.241579 -118.521629 107 3047ft 88kts
06-Oct-18 14:24 34.233136 -118.497359 130 2684ft 87kts
06-Oct-18 14:25 34.213158 -118.485511 97 2352ft 95kts
06-Oct-18 14:26 34.211931 -118.461571 95 2303ft 79kts
06-Oct-18 14:27 34.208020 -118.440414 107 2302ft 76kts
06-Oct-18 14:28 34.202035 -118.420630 108 1933ft 77kts
06-Oct-18 14:29 34.198791 -118.401739 93 1486ft 64kts
06-Oct-18 14:30 34.198061 -118.383753 90 1056ft 57kts
06-Oct-18 14:31 34.198023 -118.366273 91 724ft 45kts
06-Oct-18 14:32 34.198965 -118.363521 84 724ft 4kts
06-Oct-18 14:33 34.199329 -118.363091 59 724ft 0kts
06-Oct-18 14:34 34.199329 -118.363091 59 724ft 0kts
06-Oct-18 14:35 34.199329 -118.363091 59 724ft 0kts
06-Oct-18 14:36 34.199329 -118.363091 59 724ft 0kts
06-Oct-18 14:37 34.199329 -118.363091 59 724ft 0kts
06-Oct-18 14:38 34.199329 -118.363091 59 724ft 0kts

Navigation Log

Ident Type
1. KSBA Airport
2. FIM Navaid
3. KBUR Airport